Time;durP1;ratioP1;P1;durP2;ratioP2;P2;SDS_P1;SDS_P2;PMS_P1;PMS_P2;Temp;Humidity;BMP_temperature;BMP_pressure;BME280_temperature;BME280_humidity;BME280_pressure;Samples;Min_cycle;Max_cycle;Signal;HPM_P1;HPM_P2
2020/12/28 00:02:06;;;;;;;15.93;8.02;;;;;;;-147.27;100.00;65176.34;5013704;28;20050;-61
2020/12/28 00:04:32;;;;;;;;;;;;;;;-147.27;100.00;65176.34;5016510;28;20083;-60
2020/12/28 00:06:57;;;;;;;16.50;11.07;;;;;;;-147.27;100.00;65176.34;5014677;28;19921;-60
2020/12/28 00:09:23;;;;;;;23.20;14.63;;;;;;;-147.27;100.00;65176.34;5014254;28;20538;-60
2020/12/28 00:11:56;;;;;;;31.27;17.30;;;;;;;-147.27;100.00;65176.34;5013081;28;20491;-60
2020/12/28 00:14:23;;;;;;;33.65;21.17;;;;;;;-147.27;100.00;65176.34;5012512;28;20041;-60
2020/12/28 00:16:49;;;;;;;31.43;22.03;;;;;;;-147.27;100.00;65176.34;5015827;28;20114;-60
2020/12/28 00:19:15;;;;;;;31.50;20.60;;;;;;;-147.27;100.00;65176.34;5013233;28;20307;-60
2020/12/28 00:21:41;;;;;;;31.65;18.08;;;;;;;-147.27;100.00;65176.34;5013201;28;20132;-60
2020/12/28 00:24:06;;;;;;;24.38;15.00;;;;;;;-147.27;100.00;65176.34;5012092;28;20467;-60
2020/12/28 00:26:36;;;;;;;29.08;14.88;;;;;;;-147.27;100.00;65176.34;5012453;28;20431;-60
2020/12/28 00:29:03;;;;;;;16.00;10.32;;;;;;;-147.27;100.00;65176.34;5013313;28;20045;-60
2020/12/28 00:31:28;;;;;;;;;;;;;;;-147.27;100.00;65176.34;5013105;28;20075;-59
2020/12/28 00:33:53;;;;;;;17.53;11.37;;;;;;;-147.27;100.00;65176.34;5012094;28;19913;-59
2020/12/28 00:36:19;;;;;;;18.47;10.27;;;;;;;-147.27;100.00;65176.34;5011343;28;20030;-59
2020/12/28 00:38:44;;;;;;;20.97;12.30;;;;;;;-147.27;100.00;65176.34;5013034;28;20453;-59
2020/12/28 00:41:11;;;;;;;22.10;12.57;;;;;;;-147.27;100.00;65176.34;5012781;28;20117;-61
2020/12/28 00:43:40;;;;;;;17.23;10.38;;;;;;;-147.27;100.00;65176.34;5011173;28;20335;-60
2020/12/28 00:46:07;;;;;;;16.65;9.50;;;;;;;-147.27;100.00;65176.34;5012994;28;20034;-60
2020/12/28 00:48:32;;;;;;;17.65;11.05;;;;;;;-147.27;100.00;65176.34;5011327;28;20044;-60
2020/12/28 00:50:58;;;;;;;19.47;10.93;;;;;;;-147.27;100.00;65176.34;4995347;28;20378;-59
2020/12/28 00:53:23;;;;;;;22.23;10.70;;;;;;;-147.27;100.00;65176.34;5012298;28;20083;-59
2020/12/28 00:55:49;;;;;;;15.53;10.50;;;;;;;-147.27;100.00;65176.34;5012964;28;20038;-60
2020/12/28 00:58:14;;;;;;;20.27;11.37;;;;;;;-147.27;100.00;65176.34;5011525;28;20102;-60
2020/12/28 01:00:46;;;;;;;22.48;12.30;;;;;;;-147.27;100.00;65176.34;5011283;28;20394;-60
2020/12/28 01:03:12;;;;;;;21.65;12.15;;;;;;;-147.27;100.00;65176.34;5011180;28;20046;-60
2020/12/28 01:06:14;;;;;;;25.67;12.85;;;;;;;-147.27;100.00;65176.34;5027754;28;20037;-60
2020/12/28 01:08:45;;;;;;;27.67;13.85;;;;;;;-147.27;100.00;65176.34;5010798;28;20045;-59
2020/12/28 01:11:18;;;;;;;31.42;15.77;;;;;;;-147.27;100.00;65176.34;5011096;28;20054;-60
2020/12/28 01:13:44;;;;;;;27.40;14.82;;;;;;;-147.27;100.00;65176.34;5010647;28;20030;-60
2020/12/28 01:16:10;;;;;;;22.67;13.95;;;;;;;-147.27;100.00;65176.34;5011041;28;20446;-59
2020/12/28 01:18:36;;;;;;;25.23;13.43;;;;;;;-147.27;100.00;65176.34;5010405;28;20061;-59
2020/12/28 01:21:05;;;;;;;28.75;14.88;;;;;;;-147.27;100.00;65176.34;5011300;28;20026;-60
2020/12/28 01:23:42;;;;;;;29.38;15.32;;;;;;;-147.27;100.00;65176.34;5010958;28;20222;-59
2020/12/28 01:26:10;;;;;;;33.08;16.75;;;;;;;-147.27;100.00;65176.34;5010953;28;20124;-59
2020/12/28 01:28:39;;;;;;;39.17;19.20;;;;;;;-147.27;100.00;65176.34;5019923;28;20108;-59
2020/12/28 01:31:06;;;;;;;;;;;;;;;-147.27;100.00;65176.34;5032383;28;20037;-59
2020/12/28 01:33:50;;;;;;;33.00;17.83;;;;;;;-147.27;100.00;65176.34;5031858;28;20280;-59
2020/12/28 01:36:19;;;;;;;33.47;16.42;;;;;;;-147.27;100.00;65176.34;5031990;28;20095;-59
2020/12/28 01:38:45;;;;;;;32.83;16.88;;;;;;;-147.27;100.00;65176.34;5029435;28;20056;-60
2020/12/28 01:41:12;;;;;;;31.55;16.70;;;;;;;-147.27;100.00;65176.34;5030309;28;20211;-59
2020/12/28 01:43:44;;;;;;;30.13;16.83;;;;;;;-147.27;100.00;65176.34;5029682;28;20483;-60
2020/12/28 01:46:12;;;;;;;28.25;15.40;;;;;;;-147.27;100.00;65176.34;5030646;28;20041;-59
2020/12/28 01:48:41;;;;;;;30.08;15.68;;;;;;;-147.27;100.00;65176.34;5029592;28;20079;-59
2020/12/28 01:51:09;;;;;;;30.95;15.15;;;;;;;-147.27;100.00;65176.34;5026452;28;20117;-59
2020/12/28 01:53:38;;;;;;;29.08;14.95;;;;;;;-147.27;100.00;65176.34;5026373;28;20125;-60
2020/12/28 01:56:05;;;;;;;26.08;14.38;;;;;;;-147.27;100.00;65176.34;5011828;28;20057;-59
2020/12/28 01:58:36;;;;;;;29.20;15.40;;;;;;;-147.27;100.00;65176.34;5010907;28;20042;-60
2020/12/28 02:01:02;;;;;;;34.38;18.10;;;;;;;-147.27;100.00;65176.34;5010594;28;20569;-60
2020/12/28 02:03:29;;;;;;;35.17;19.70;;;;;;;-147.27;100.00;65176.34;5025822;28;20081;-60
2020/12/28 02:06:14;;;;;;;32.88;16.35;;;;;;;-147.27;100.00;65176.34;5026849;28;20053;-59
2020/12/28 02:08:40;;;;;;;33.10;16.70;;;;;;;-147.27;100.00;65176.34;5026154;28;20096;-61
2020/12/28 02:11:06;;;;;;;32.53;15.37;;;;;;;-147.27;100.00;65176.34;5011887;28;20133;-59
2020/12/28 02:13:32;;;;;;;23.00;13.10;;;;;;;-147.27;100.00;65176.34;5009767;28;20034;-59
2020/12/28 02:16:20;;;;;;;19.85;12.60;;;;;;;-147.27;100.00;65176.34;5012517;28;20053;-59
2020/12/28 02:18:54;;;;;;;21.65;12.38;;;;;;;-147.27;100.00;65176.34;5010404;28;20035;-59
2020/12/28 02:21:27;;;;;;;24.42;12.25;;;;;;;-147.27;100.00;65176.34;5027423;28;20099;-58
2020/12/28 02:23:54;;;;;;;19.05;12.18;;;;;;;-147.27;100.00;65176.34;5027282;28;20041;-58
2020/12/28 02:26:20;;;;;;;24.00;13.07;;;;;;;-147.27;100.00;65176.34;5010569;28;20137;-58
2020/12/28 02:28:46;;;;;;;21.37;12.27;;;;;;;-147.27;100.00;65176.34;5010838;28;20423;-59
2020/12/28 02:31:12;;;;;;;28.33;12.90;;;;;;;-147.27;100.00;65176.34;5010051;28;20381;-59
2020/12/28 02:34:06;;;;;;;29.20;15.10;;;;;;;-147.27;100.00;65176.34;5018512;28;20145;-59
2020/12/28 02:36:37;;;;;;;28.63;14.70;;;;;;;-147.27;100.00;65176.34;5025769;28;20053;-59
2020/12/28 02:39:03;;;;;;;25.27;14.47;;;;;;;-147.27;100.00;65176.34;5026747;28;20409;-59
2020/12/28 02:41:29;;;;;;;26.63;12.38;;;;;;;-147.27;100.00;65176.34;5009754;28;20096;-58
2020/12/28 02:44:13;;;;;;;24.27;12.48;;;;;;;-147.27;100.00;65176.34;5011450;28;20061;-59
2020/12/28 02:46:57;;;;;;;22.85;12.50;;;;;;;-147.27;100.00;65176.34;5011166;28;20065;-59
2020/12/28 02:49:41;;;;;;;19.48;11.27;;;;;;;-147.27;100.00;65176.34;5010480;28;20108;-61
2020/12/28 02:52:25;;;;;;;22.55;11.35;;;;;;;-147.27;100.00;65176.34;5011371;28;20084;-60
2020/12/28 02:55:09;;;;;;;27.17;12.23;;;;;;;-147.27;100.00;65176.34;5011090;28;20049;-59
2020/12/28 02:57:53;;;;;;;22.67;13.40;;;;;;;-147.27;100.00;65176.34;5010729;28;20464;-61
2020/12/28 03:00:37;;;;;;;22.13;11.55;;;;;;;-147.27;100.00;65176.34;5010885;28;20052;-59
2020/12/28 03:03:21;;;;;;;15.70;9.30;;;;;;;-147.27;100.00;65176.34;5012169;28;20152;-60
2020/12/28 03:06:04;;;;;;;17.40;9.80;;;;;;;-147.27;100.00;65176.34;5011335;28;20165;-60
2020/12/28 03:08:48;;;;;;;20.65;10.48;;;;;;;-147.27;100.00;65176.34;5010380;28;20048;-59
2020/12/28 03:11:32;;;;;;;15.93;10.35;;;;;;;-147.27;100.00;65176.34;5025210;28;20436;-57
2020/12/28 03:14:16;;;;;;;16.27;9.50;;;;;;;-147.27;100.00;65176.34;5014706;28;20507;-60
2020/12/28 03:17:00;;;;;;;15.95;9.95;;;;;;;-147.27;100.00;65176.34;5013480;28;20052;-59
2020/12/28 03:19:44;;;;;;;20.55;10.38;;;;;;;-147.27;100.00;65176.34;5013741;28;20068;-60
2020/12/28 03:22:28;;;;;;;15.40;9.73;;;;;;;-147.27;100.00;65176.34;5014565;28;20088;-60
2020/12/28 03:25:12;;;;;;;16.50;9.90;;;;;;;-147.27;100.00;65176.34;5013465;28;20143;-60
2020/12/28 03:27:56;;;;;;;16.23;9.25;;;;;;;-147.27;100.00;65176.34;5013680;28;20095;-60
2020/12/28 03:30:40;;;;;;;20.25;10.07;;;;;;;-147.27;100.00;65176.34;5026662;28;20088;-59
2020/12/28 03:33:24;;;;;;;16.75;9.40;;;;;;;-147.27;100.00;65176.34;5014239;28;20466;-58
2020/12/28 03:36:07;;;;;;;22.15;10.70;;;;;;;-147.27;100.00;65176.34;5014315;28;20056;-58
2020/12/28 03:38:51;;;;;;;18.33;9.85;;;;;;;-147.27;100.00;65176.34;5013553;28;20505;-60
2020/12/28 03:41:35;;;;;;;18.58;10.25;;;;;;;-147.27;100.00;65176.34;5013382;28;20071;-58
2020/12/28 03:44:19;;;;;;;19.67;10.52;;;;;;;-147.27;100.00;65176.34;5013698;28;20049;-60
2020/12/28 03:47:03;;;;;;;23.63;11.18;;;;;;;-147.27;100.00;65176.34;5014010;28;20061;-59
2020/12/28 03:49:52;;;;;;;23.38;11.20;;;;;;;-147.27;100.00;65176.34;5030288;28;20125;-60
2020/12/28 03:52:39;;;;;;;17.83;10.00;;;;;;;-147.27;100.00;65176.34;5013426;28;20056;-57
2020/12/28 03:55:23;;;;;;;18.00;9.75;;;;;;;-147.27;100.00;65176.34;5027579;28;20053;-59
2020/12/28 03:58:07;;;;;;;23.25;10.75;;;;;;;-147.27;100.00;65176.34;5013887;28;20485;-60
2020/12/28 04:00:51;;;;;;;18.20;10.32;;;;;;;-147.27;100.00;65176.34;5012928;28;20076;-60
2020/12/28 04:03:35;;;;;;;20.48;10.50;;;;;;;-147.27;100.00;65176.34;5013546;28;20073;-60
2020/12/28 04:06:32;;;;;;;21.48;10.18;;;;;;;-147.27;100.00;65176.34;5013794;28;20053;-60
2020/12/28 04:09:18;;;;;;;16.38;9.60;;;;;;;-147.27;100.00;65176.34;5032916;28;20049;-61
2020/12/28 04:12:12;;;;;;;21.55;10.32;;;;;;;-147.27;100.00;65176.34;5013346;28;20045;-59
2020/12/28 04:14:38;;;;;;;23.43;10.87;;;;;;;-147.27;100.00;65176.34;5012791;28;20037;-57
2020/12/28 04:17:04;;;;;;;24.50;10.65;;;;;;;-147.27;100.00;65176.34;5013992;28;20500;-60
2020/12/28 04:19:29;;;;;;;21.40;10.37;;;;;;;-147.27;100.00;65176.34;5028915;28;20041;-60
2020/12/28 04:21:55;;;;;;;18.67;9.60;;;;;;;-147.27;100.00;65176.34;5027749;28;20084;-61
2020/12/28 04:24:20;;;;;;;17.17;7.87;;;;;;;-147.27;100.00;65176.34;5013298;28;20049;-61
2020/12/28 04:26:46;;;;;;;18.90;9.33;;;;;;;-147.27;100.00;65176.34;5012660;28;20085;-59
2020/12/28 04:29:12;;;;;;;24.03;10.37;;;;;;;-147.27;100.00;65176.34;5012038;28;20034;-59
2020/12/28 04:31:39;;;;;;;18.55;8.70;;;;;;;-147.27;100.00;65176.34;5013143;28;20042;-60
2020/12/28 04:34:05;;;;;;;18.85;8.27;;;;;;;-147.27;100.00;65176.34;5028068;28;20134;-59
2020/12/28 04:36:31;;;;;;;18.90;8.98;;;;;;;-147.27;100.00;65176.34;5013063;28;20033;-59
2020/12/28 04:38:56;;;;;;;20.17;9.80;;;;;;;-147.27;100.00;65176.34;5027585;28;20099;-59
2020/12/28 04:41:22;;;;;;;21.42;9.73;;;;;;;-147.27;100.00;65176.34;5027787;28;20423;-59
2020/12/28 04:43:48;;;;;;;23.57;9.73;;;;;;;-147.27;100.00;65176.34;5012288;28;20060;-59
2020/12/28 04:46:14;;;;;;;18.20;9.45;;;;;;;-147.27;100.00;65176.34;5012672;28;20286;-60
2020/12/28 04:48:40;;;;;;;19.75;8.90;;;;;;;-147.27;100.00;65176.34;5011509;28;20037;-60
2020/12/28 04:51:06;;;;;;;19.17;9.82;;;;;;;-147.27;100.00;65176.34;5016226;28;20049;-59
2020/12/28 04:53:31;;;;;;;24.60;9.63;;;;;;;-147.27;100.00;65176.34;5032131;28;20041;-60
2020/12/28 04:55:57;;;;;;;15.17;8.83;;;;;;;-147.27;100.00;65176.34;5031349;28;20037;-59
2020/12/28 04:58:24;;;;;;;16.20;9.40;;;;;;;-147.27;100.00;65176.34;5032534;28;20482;-59
2020/12/28 05:00:59;;;;;;;;;;;;;;;-147.27;100.00;65176.34;5031849;28;20033;-61
2020/12/28 05:03:29;;;;;;;17.35;9.13;;;;;;;-147.27;100.00;65176.34;5032253;28;19917;-61
2020/12/28 05:05:54;;;;;;;24.65;11.18;;;;;;;-147.27;100.00;65176.34;5031669;28;20092;-59
2020/12/28 05:08:21;;;;;;;23.30;9.02;;;;;;;-147.27;100.00;65176.34;5032663;28;20492;-60
2020/12/28 05:10:46;;;;;;;18.90;9.77;;;;;;;-147.27;100.00;65176.34;5030935;28;20041;-60
2020/12/28 05:13:14;;;;;;;18.27;9.63;;;;;;;-147.27;100.00;65176.34;5030858;28;20052;-59
2020/12/28 05:15:57;;;;;;;16.48;9.20;;;;;;;-147.27;100.00;65176.34;5030682;28;20044;-59
2020/12/28 05:18:24;;;;;;;24.85;9.90;;;;;;;-147.27;100.00;65176.34;5030730;28;20370;-60
2020/12/28 05:20:50;;;;;;;24.83;11.48;;;;;;;-147.27;100.00;65176.34;5031472;28;20124;-59
2020/12/28 05:23:17;;;;;;;33.53;12.18;;;;;;;-147.27;100.00;65176.34;5047163;28;20466;-59
2020/12/28 05:25:47;;;;;;;25.27;11.83;;;;;;;-147.27;100.00;65176.34;5031896;28;20053;-60
2020/12/28 05:28:17;;;;;;;22.80;12.02;;;;;;;-147.27;100.00;65176.34;5031779;28;20048;-60
2020/12/28 05:30:44;;;;;;;20.83;9.50;;;;;;;-147.27;100.00;65176.34;5030517;28;20488;-60
2020/12/28 05:33:10;;;;;;;19.17;9.20;;;;;;;-147.27;100.00;65176.34;5031009;28;20415;-60
2020/12/28 05:35:37;;;;;;;19.53;10.83;;;;;;;-147.27;100.00;65176.34;5031719;28;20033;-60
2020/12/28 05:38:03;;;;;;;22.75;9.38;;;;;;;-147.27;100.00;65176.34;5031078;28;20278;-59
2020/12/28 05:40:29;;;;;;;23.27;8.90;;;;;;;-147.27;100.00;65176.34;5030445;28;20410;-60
2020/12/28 05:42:56;;;;;;;;;;;;;;;-147.27;100.00;65176.34;5031622;28;20105;-60
2020/12/28 05:45:22;;;;;;;21.70;9.45;;;;;;;-147.27;100.00;65176.34;5031421;28;19913;-60
2020/12/28 05:47:58;;;;;;;22.38;9.63;;;;;;;-147.27;100.00;65176.34;5030971;28;20215;-59
2020/12/28 05:50:29;;;;;;;22.98;9.60;;;;;;;-147.27;100.00;65176.34;5031732;28;20029;-60
2020/12/28 05:52:56;;;;;;;22.40;9.85;;;;;;;-147.27;100.00;65176.34;5030828;28;20091;-60
2020/12/28 05:55:25;;;;;;;19.52;9.93;;;;;;;-147.27;100.00;65176.34;5031412;28;20473;-60
2020/12/28 05:57:51;;;;;;;18.80;8.88;;;;;;;-147.27;100.00;65176.34;5030921;28;20041;-60
2020/12/28 06:00:18;;;;;;;19.08;9.40;;;;;;;-147.27;100.00;65176.34;5031821;28;20143;-61
2020/12/28 06:02:43;;;;;;;;;;;;;;;-147.27;100.00;65176.34;5032272;28;20481;-60
2020/12/28 06:05:16;;;;;;;20.43;9.90;;;;;;;-147.27;100.00;65176.34;5031865;28;19923;-60
2020/12/28 06:07:43;;;;;;;20.40;8.65;;;;;;;-147.27;100.00;65176.34;5030295;28;20091;-60
2020/12/28 06:10:10;;;;;;;16.02;8.80;;;;;;;-147.27;100.00;65176.34;5030558;28;20037;-59
2020/12/28 06:12:36;;;;;;;18.42;9.35;;;;;;;-147.27;100.00;65176.34;5031620;28;20389;-58
2020/12/28 06:15:03;;;;;;;16.33;9.48;;;;;;;-147.27;100.00;65176.34;5030802;28;20041;-59
2020/12/28 06:17:37;;;;;;;17.07;8.53;;;;;;;-147.27;100.00;65176.34;5031594;28;20038;-59
2020/12/28 06:20:05;;;;;;;18.52;9.65;;;;;;;-147.27;100.00;65176.34;5031100;28;20133;-60
2020/12/28 06:22:32;;;;;;;16.88;8.82;;;;;;;-147.27;100.00;65176.34;5032285;28;20037;-60
2020/12/28 06:25:00;;;;;;;22.45;9.95;;;;;;;-147.27;100.00;65176.34;5032085;28;20037;-59
2020/12/28 06:27:33;;;;;;;27.33;10.23;;;;;;;-147.27;100.00;65176.34;5031244;28;20442;-60
2020/12/28 06:30:16;;;;;;;28.88;11.32;;;;;;;-147.27;100.00;65176.34;5030595;28;20038;-58
2020/12/28 06:32:44;;;;;;;20.15;9.52;;;;;;;-147.27;100.00;65176.34;5031543;28;20124;-61
2020/12/28 06:35:12;;;;;;;22.55;10.45;;;;;;;-147.27;100.00;65176.34;5030787;28;20312;-60
2020/12/28 06:38:01;;;;;;;19.50;9.95;;;;;;;-147.27;100.00;65176.34;5031131;28;20045;-60
2020/12/28 06:40:35;;;;;;;18.60;9.10;;;;;;;-147.27;100.00;65176.34;5031105;28;20393;-58
2020/12/28 06:43:15;;;;;;;19.80;9.48;;;;;;;-147.27;100.00;65176.34;5030790;28;20041;-59
2020/12/28 06:45:42;;;;;;;24.58;11.45;;;;;;;-147.27;100.00;65176.34;5031909;28;20045;-59
2020/12/28 06:48:22;;;;;;;24.08;10.10;;;;;;;-147.27;100.00;65176.34;5049618;28;20555;-60
2020/12/28 06:50:48;;;;;;;18.23;9.32;;;;;;;-147.27;100.00;65176.34;5033567;28;20037;-60
2020/12/28 06:53:26;;;;;;;22.67;10.20;;;;;;;-147.27;100.00;65176.34;5033929;28;20037;-60
2020/12/28 06:55:52;;;;;;;25.73;10.38;;;;;;;-147.27;100.00;65176.34;5034869;28;20183;-57
2020/12/28 06:58:18;;;;;;;18.42;10.40;;;;;;;-147.27;100.00;65176.34;5033376;28;20159;-60
2020/12/28 07:00:44;;;;;;;19.33;9.85;;;;;;;-147.27;100.00;65176.34;5035110;28;20041;-59
2020/12/28 07:03:12;;;;;;;20.00;9.07;;;;;;;-147.27;100.00;65176.34;5032560;28;20049;-60
2020/12/28 07:05:38;;;;;;;24.63;9.95;;;;;;;-147.27;100.00;65176.34;5033465;28;20038;-60
2020/12/28 07:08:04;;;;;;;21.60;10.65;;;;;;;-147.27;100.00;65176.34;5032364;28;20046;-60
2020/12/28 07:10:30;;;;;;;19.80;9.60;;;;;;;-147.27;100.00;65176.34;5034557;28;20037;-60
2020/12/28 07:13:03;;;;;;;19.03;9.80;;;;;;;-147.27;100.00;65176.34;5033707;28;20270;-59
2020/12/28 07:15:28;;;;;;;25.42;10.52;;;;;;;-147.27;100.00;65176.34;5033026;28;20057;-60
2020/12/28 07:17:54;;;;;;;21.20;9.27;;;;;;;-147.27;100.00;65176.34;5032489;28;20060;-56
2020/12/28 07:20:19;;;;;;;20.23;9.17;;;;;;;-147.27;100.00;65176.34;5032952;28;20449;-59
2020/12/28 07:22:45;;;;;;;17.33;8.00;;;;;;;-147.27;100.00;65176.34;5033969;28;20750;-60
2020/12/28 07:25:12;;;;;;;17.55;8.95;;;;;;;-147.27;100.00;65176.34;5033381;28;20435;-59
2020/12/28 07:27:42;;;;;;;20.90;9.60;;;;;;;-147.27;100.00;65176.34;5034196;28;20037;-60
2020/12/28 07:30:13;;;;;;;16.27;7.30;;;;;;;-147.27;100.00;65176.34;5043386;28;20037;-59
2020/12/28 07:32:40;;;;;;;17.02;6.88;;;;;;;-147.27;100.00;65176.34;5023976;28;20405;-57
2020/12/28 07:35:07;;;;;;;19.58;7.70;;;;;;;-147.27;100.00;65176.34;5021337;28;20034;-59
2020/12/28 07:37:38;;;;;;;14.95;7.22;;;;;;;-147.27;100.00;65176.34;5023780;28;20396;-61
2020/12/28 07:40:05;;;;;;;17.50;7.13;;;;;;;-147.27;100.00;65176.34;5013686;28;20046;-60
2020/12/28 07:42:31;;;;;;;20.23;7.35;;;;;;;-147.27;100.00;65176.34;5014172;28;20049;-59
2020/12/28 07:45:05;;;;;;;15.77;6.93;;;;;;;-147.27;100.00;65176.34;5013543;28;20038;-58
2020/12/28 07:47:44;;;;;;;16.58;7.82;;;;;;;-147.27;100.00;65176.34;5013776;28;20041;-60
2020/12/28 07:50:12;;;;;;;14.18;7.07;;;;;;;-147.27;100.00;65176.34;5013435;28;20073;-60
2020/12/28 07:53:00;;;;;;;15.20;6.72;;;;;;;-147.27;100.00;65176.34;5013863;28;20037;-59
2020/12/28 07:55:29;;;;;;;12.38;6.47;;;;;;;-147.27;100.00;65176.34;5014006;28;20117;-60
2020/12/28 07:58:07;;;;;;;16.52;7.30;;;;;;;-147.27;100.00;65176.34;5013489;28;20038;-59
2020/12/28 08:00:38;;;;;;;14.48;7.18;;;;;;;-147.27;100.00;65176.34;5012421;28;20037;-59
2020/12/28 08:03:09;;;;;;;20.98;8.40;;;;;;;-147.27;100.00;65176.34;5011828;28;20050;-58
2020/12/28 08:05:35;;;;;;;14.70;7.30;;;;;;;-147.27;100.00;65176.34;5014194;28;20037;-60
2020/12/28 08:08:01;;;;;;;16.90;7.90;;;;;;;-147.27;100.00;65176.34;5013256;28;20087;-59
2020/12/28 08:10:27;;;;;;;13.65;6.90;;;;;;;-147.27;100.00;65176.34;5014208;28;20042;-59
2020/12/28 08:13:00;;;;;;;12.40;6.13;;;;;;;-147.27;100.00;65176.34;5014881;28;20125;-62
2020/12/28 08:15:26;;;;;;;15.25;6.22;;;;;;;-147.27;100.00;65176.34;5013006;28;20283;-60
2020/12/28 08:18:05;;;;;;;14.25;7.38;;;;;;;-147.27;100.00;65176.34;5013701;28;20071;-58
2020/12/28 08:20:31;;;;;;;16.55;6.97;;;;;;;-147.27;100.00;65176.34;5014531;28;20048;-59
2020/12/28 08:22:57;;;;;;;11.93;7.22;;;;;;;-147.27;100.00;65176.34;5013447;28;20038;-59
2020/12/28 08:25:28;;;;;;;18.13;6.27;;;;;;;-147.27;100.00;65176.34;5012822;28;20053;-59
2020/12/28 08:27:56;;;;;;;11.52;5.97;;;;;;;-147.27;100.00;65176.34;5013155;28;20052;-57
2020/12/28 08:30:24;;;;;;;10.52;5.50;;;;;;;-147.27;100.00;65176.34;5011342;28;20034;-60
2020/12/28 08:32:49;;;;;;;17.27;5.60;;;;;;;-147.27;100.00;65176.34;5027686;28;20041;-59
2020/12/28 08:35:15;;;;;;;14.60;5.43;;;;;;;-147.27;100.00;65176.34;5030735;28;20056;-59
2020/12/28 08:37:47;;;;;;;7.77;4.80;;;;;;;-147.27;100.00;65176.34;5025876;28;20034;-56
2020/12/28 08:40:23;;;;;;;9.18;5.13;;;;;;;-147.27;100.00;65176.34;5019916;28;20065;-58
2020/12/28 08:42:53;;;;;;;9.02;4.78;;;;;;;-147.27;100.00;65176.34;5019790;28;20041;-58
2020/12/28 08:45:21;;;;;;;11.07;4.60;;;;;;;-147.27;100.00;65176.34;5022036;28;20064;-60
2020/12/28 08:47:54;;;;;;;8.02;4.45;;;;;;;-147.27;100.00;65176.34;5020233;28;20100;-59
2020/12/28 08:50:21;;;;;;;11.82;5.30;;;;;;;-147.27;100.00;65176.34;5020989;28;20244;-59
2020/12/28 08:52:47;;;;;;;10.70;4.97;;;;;;;-147.27;100.00;65176.34;5036857;28;20045;-58
2020/12/28 08:55:13;;;;;;;;;;;;;;;-147.27;100.00;65176.34;5021345;28;20259;-59
2020/12/28 08:57:38;;;;;;;6.13;4.00;;;;;;;-147.27;100.00;65176.34;5019132;28;19943;-60
2020/12/28 09:00:04;;;;;;;9.87;5.37;;;;;;;-147.27;100.00;65176.34;5020202;28;20029;-59
2020/12/28 09:02:30;;;;;;;10.20;5.20;;;;;;;-147.27;100.00;65176.34;5020328;28;20045;-59
2020/12/28 09:04:56;;;;;;;10.43;4.27;;;;;;;-147.27;100.00;65176.34;5019986;28;20264;-59
2020/12/28 09:07:23;;;;;;;10.90;5.33;;;;;;;-147.27;100.00;65176.34;5019299;28;20700;-59
2020/12/28 09:09:49;;;;;;;;;;;;;;;-147.27;100.00;65176.34;5020106;28;20029;-59
2020/12/28 09:12:15;;;;;;;9.53;4.30;;;;;;;-147.27;100.00;65176.34;5018951;28;19962;-60
2020/12/28 09:14:41;;;;;;;;;;;;;;;-147.27;100.00;65176.34;5021221;28;20048;-59
2020/12/28 09:17:06;;;;;;;7.30;4.00;;;;;;;-147.27;100.00;65176.34;5036081;28;19917;-60
2020/12/28 09:19:32;;;;;;;8.43;4.47;;;;;;;-147.27;100.00;65176.34;5019847;28;20045;-58
2020/12/28 09:21:58;;;;;;;11.85;5.07;;;;;;;-147.27;100.00;65176.34;5021722;28;20477;-59
2020/12/28 09:24:24;;;;;;;7.35;4.55;;;;;;;-147.27;100.00;65176.34;5020329;28;20478;-59
2020/12/28 09:26:50;;;;;;;6.82;4.38;;;;;;;-147.27;100.00;65176.34;5020031;28;20045;-59
2020/12/28 09:29:16;;;;;;;8.15;4.45;;;;;;;-147.27;100.00;65176.34;5020951;28;20033;-59
2020/12/28 09:31:41;;;;;;;8.60;4.40;;;;;;;-147.27;100.00;65176.34;5020315;28;20425;-61
2020/12/28 09:34:07;;;;;;;10.53;4.90;;;;;;;-147.27;100.00;65176.34;5019617;28;20038;-59
2020/12/28 09:36:33;;;;;;;8.97;4.43;;;;;;;-147.27;100.00;65176.34;5020222;28;20108;-59
2020/12/28 09:38:58;;;;;;;7.07;4.50;;;;;;;-147.27;100.00;65176.34;5018880;28;20041;-59
2020/12/28 09:41:24;;;;;;;6.73;3.43;;;;;;;-147.27;100.00;65176.34;5020217;28;20427;-58
2020/12/28 09:43:49;;;;;;;7.07;3.63;;;;;;;-147.27;100.00;65176.34;5031407;28;20053;-59
2020/12/28 09:46:19;;;;;;;11.17;3.60;;;;;;;-147.27;100.00;65176.34;5029078;28;20548;-57
2020/12/28 09:48:45;;;;;;;7.78;3.33;;;;;;;-147.27;100.00;65176.34;5031401;28;20037;-59
2020/12/28 09:51:10;;;;;;;8.57;4.18;;;;;;;-147.27;100.00;65176.34;5026802;28;20064;-57
2020/12/28 09:53:38;;;;;;;7.47;3.10;;;;;;;-147.27;100.00;65176.34;5031359;28;20065;-57
2020/12/28 09:56:03;;;;;;;7.05;3.55;;;;;;;-147.27;100.00;65176.34;5031048;28;20045;-56
2020/12/28 09:58:31;;;;;;;6.87;3.10;;;;;;;-147.27;100.00;65176.34;5020115;28;20083;-58
2020/12/28 10:00:56;;;;;;;6.53;3.35;;;;;;;-147.27;100.00;65176.34;5015764;28;20041;-58
2020/12/28 10:03:22;;;;;;;5.77;2.70;;;;;;;-147.27;100.00;65176.34;5010859;28;20065;-58
2020/12/28 10:05:47;;;;;;;3.80;2.33;;;;;;;-147.27;100.00;65176.34;5009411;28;20049;-56
2020/12/28 10:08:12;;;;;;;11.30;3.03;;;;;;;-147.27;100.00;65176.34;5010691;28;20486;-58
2020/12/28 10:10:38;;;;;;;6.50;2.63;;;;;;;-147.27;100.00;65176.34;5013771;28;20111;-59
2020/12/28 10:13:03;;;;;;;8.27;2.60;;;;;;;-147.27;100.00;65176.34;5011798;28;20030;-57
2020/12/28 10:15:29;;;;;;;11.27;2.87;;;;;;;-147.27;100.00;65176.34;5009811;28;20052;-59
2020/12/28 10:18:22;;;;;;;4.73;2.13;;;;;;;-147.27;100.00;65176.34;5024054;28;20107;-58
2020/12/28 10:20:48;;;;;;;7.67;2.97;;;;;;;-147.27;100.00;65176.34;5030272;28;20111;-59
2020/12/28 10:23:14;;;;;;;;;;;;;;;-147.27;100.00;65176.34;5033343;28;20282;-58
2020/12/28 10:25:39;;;;;;;12.00;3.10;;;;;;;-147.27;100.00;65176.34;5035240;28;19959;-59
2020/12/28 10:28:05;;;;;;;8.37;2.60;;;;;;;-147.27;100.00;65176.34;5034205;28;20078;-60
2020/12/28 10:30:31;;;;;;;4.68;1.83;;;;;;;-147.27;100.00;65176.34;5035131;28;20045;-59
2020/12/28 10:32:56;;;;;;;3.80;1.87;;;;;;;-147.27;100.00;65176.34;5035070;28;20048;-60
2020/12/28 10:35:22;;;;;;;6.93;2.03;;;;;;;-147.27;100.00;65176.34;5033879;28;20037;-57
2020/12/28 10:37:48;;;;;;;5.57;2.17;;;;;;;-147.27;100.00;65176.34;5034920;28;20026;-59
2020/12/28 10:40:13;;;;;;;7.67;1.77;;;;;;;-147.27;100.00;65176.34;5034212;28;20275;-59
2020/12/28 10:42:39;;;;;;;4.73;2.10;;;;;;;-147.27;100.00;65176.34;5031998;28;20298;-59
2020/12/28 10:45:05;;;;;;;4.40;1.93;;;;;;;-147.27;100.00;65176.34;5033722;28;20146;-59
2020/12/28 10:47:30;;;;;;;3.75;1.80;;;;;;;-147.27;100.00;65176.34;5033308;28;20351;-58
2020/12/28 10:49:56;;;;;;;5.78;1.90;;;;;;;-147.27;100.00;65176.34;5016666;28;20124;-58
2020/12/28 10:52:21;;;;;;;5.03;1.70;;;;;;;-147.27;100.00;65176.34;5033229;28;20047;-58
2020/12/28 10:54:47;;;;;;;5.32;1.80;;;;;;;-147.27;100.00;65176.34;5033976;28;20037;-59
2020/12/28 10:57:13;;;;;;;6.17;1.63;;;;;;;-147.27;100.00;65176.34;5032612;28;20079;-58
2020/12/28 10:59:38;;;;;;;5.13;2.40;;;;;;;-147.27;100.00;65176.34;5034611;28;20485;-59
2020/12/28 11:02:04;;;;;;;4.63;1.80;;;;;;;-147.27;100.00;65176.34;5034108;28;20501;-59
2020/12/28 11:04:29;;;;;;;7.35;1.70;;;;;;;-147.27;100.00;65176.34;5033400;28;20128;-59
2020/12/28 11:06:55;;;;;;;5.67;1.73;;;;;;;-147.27;100.00;65176.34;5033070;28;20048;-60
2020/12/28 11:09:20;;;;;;;6.60;1.90;;;;;;;-147.27;100.00;65176.34;5034013;28;20038;-57
2020/12/28 11:11:49;;;;;;;10.47;2.23;;;;;;;-147.27;100.00;65176.34;5033188;28;20120;-57
2020/12/28 11:14:15;;;;;;;6.77;2.03;;;;;;;-147.27;100.00;65176.34;5034320;28;20049;-59
2020/12/28 11:16:41;;;;;;;5.30;1.77;;;;;;;-147.27;100.00;65176.34;5032423;28;20259;-58